sensor_id;sensor_type;location;lat;lon;timestamp;P1;durP1;ratioP1;P2;durP2;ratioP2
32365;SDS011;18837;46.832;16.838;2023-04-06T00:00:56;4.10;;;2.60;;
32365;SDS011;18837;46.832;16.838;2023-04-06T00:03:21;3.43;;;2.53;;
32365;SDS011;18837;46.832;16.838;2023-04-06T00:05:48;3.73;;;2.73;;
32365;SDS011;18837;46.832;16.838;2023-04-06T00:08:17;4.73;;;2.80;;
32365;SDS011;18837;46.832;16.838;2023-04-06T00:10:42;3.57;;;2.50;;
32365;SDS011;18837;46.832;16.838;2023-04-06T00:13:08;3.77;;;2.70;;
32365;SDS011;18837;46.832;16.838;2023-04-06T00:15:34;3.87;;;2.80;;
32365;SDS011;18837;46.832;16.838;2023-04-06T00:18:00;4.37;;;2.30;;
32365;SDS011;18837;46.832;16.838;2023-04-06T00:20:27;3.90;;;3.00;;
32365;SDS011;18837;46.832;16.838;2023-04-06T00:23:05;3.40;;;2.63;;
32365;SDS011;18837;46.832;16.838;2023-04-06T00:28:15;3.40;;;2.40;;
32365;SDS011;18837;46.832;16.838;2023-04-06T00:30:42;4.10;;;2.90;;
32365;SDS011;18837;46.832;16.838;2023-04-06T00:33:07;3.73;;;2.67;;
32365;SDS011;18837;46.832;16.838;2023-04-06T00:35:33;3.73;;;2.30;;
32365;SDS011;18837;46.832;16.838;2023-04-06T00:37:59;4.37;;;2.90;;
32365;SDS011;18837;46.832;16.838;2023-04-06T00:40:25;4.40;;;2.73;;
32365;SDS011;18837;46.832;16.838;2023-04-06T00:42:55;3.90;;;2.60;;
32365;SDS011;18837;46.832;16.838;2023-04-06T00:45:20;4.83;;;2.90;;
32365;SDS011;18837;46.832;16.838;2023-04-06T00:47:46;3.90;;;2.80;;
32365;SDS011;18837;46.832;16.838;2023-04-06T00:50:12;3.47;;;2.30;;
32365;SDS011;18837;46.832;16.838;2023-04-06T00:52:38;4.33;;;2.60;;
32365;SDS011;18837;46.832;16.838;2023-04-06T00:55:04;3.83;;;2.60;;
32365;SDS011;18837;46.832;16.838;2023-04-06T01:00:34;3.77;;;2.73;;
32365;SDS011;18837;46.832;16.838;2023-04-06T01:03:00;4.13;;;2.80;;
32365;SDS011;18837;46.832;16.838;2023-04-06T01:05:26;3.27;;;2.30;;
32365;SDS011;18837;46.832;16.838;2023-04-06T01:07:52;3.40;;;2.37;;
32365;SDS011;18837;46.832;16.838;2023-04-06T01:10:24;3.93;;;2.70;;
32365;SDS011;18837;46.832;16.838;2023-04-06T01:12:51;4.03;;;2.60;;
32365;SDS011;18837;46.832;16.838;2023-04-06T01:15:35;3.63;;;2.60;;
32365;SDS011;18837;46.832;16.838;2023-04-06T01:18:04;3.33;;;2.30;;
32365;SDS011;18837;46.832;16.838;2023-04-06T01:20:31;4.23;;;2.93;;
32365;SDS011;18837;46.832;16.838;2023-04-06T01:22:57;4.40;;;2.60;;
32365;SDS011;18837;46.832;16.838;2023-04-06T01:25:23;3.43;;;2.70;;
32365;SDS011;18837;46.832;16.838;2023-04-06T01:27:50;4.43;;;2.73;;
32365;SDS011;18837;46.832;16.838;2023-04-06T01:30:15;3.73;;;2.40;;
32365;SDS011;18837;46.832;16.838;2023-04-06T01:32:57;4.23;;;3.30;;
32365;SDS011;18837;46.832;16.838;2023-04-06T01:35:53;3.40;;;2.50;;
32365;SDS011;18837;46.832;16.838;2023-04-06T01:38:19;5.03;;;2.13;;
32365;SDS011;18837;46.832;16.838;2023-04-06T01:40:46;3.80;;;2.77;;
32365;SDS011;18837;46.832;16.838;2023-04-06T01:43:11;3.27;;;2.40;;
32365;SDS011;18837;46.832;16.838;2023-04-06T01:45:37;5.43;;;2.90;;
32365;SDS011;18837;46.832;16.838;2023-04-06T01:48:03;3.83;;;2.50;;
32365;SDS011;18837;46.832;16.838;2023-04-06T01:50:32;4.10;;;2.60;;
32365;SDS011;18837;46.832;16.838;2023-04-06T01:52:58;4.37;;;2.53;;
32365;SDS011;18837;46.832;16.838;2023-04-06T01:55:24;3.23;;;2.27;;
32365;SDS011;18837;46.832;16.838;2023-04-06T01:57:49;4.83;;;2.73;;
32365;SDS011;18837;46.832;16.838;2023-04-06T02:00:15;2.83;;;2.53;;
32365;SDS011;18837;46.832;16.838;2023-04-06T02:02:42;5.40;;;2.87;;
32365;SDS011;18837;46.832;16.838;2023-04-06T02:05:20;3.80;;;2.50;;
32365;SDS011;18837;46.832;16.838;2023-04-06T02:10:38;4.70;;;2.67;;
32365;SDS011;18837;46.832;16.838;2023-04-06T02:13:04;3.33;;;2.70;;
32365;SDS011;18837;46.832;16.838;2023-04-06T02:15:30;3.03;;;2.50;;
32365;SDS011;18837;46.832;16.838;2023-04-06T02:17:56;5.13;;;2.63;;
32365;SDS011;18837;46.832;16.838;2023-04-06T02:20:22;2.93;;;2.27;;
32365;SDS011;18837;46.832;16.838;2023-04-06T02:22:48;3.67;;;2.67;;
32365;SDS011;18837;46.832;16.838;2023-04-06T02:25:26;3.30;;;2.57;;
32365;SDS011;18837;46.832;16.838;2023-04-06T02:27:51;4.60;;;3.10;;
32365;SDS011;18837;46.832;16.838;2023-04-06T02:30:17;3.17;;;1.93;;
32365;SDS011;18837;46.832;16.838;2023-04-06T02:32:43;3.93;;;2.70;;
32365;SDS011;18837;46.832;16.838;2023-04-06T02:35:09;2.90;;;2.30;;
32365;SDS011;18837;46.832;16.838;2023-04-06T02:37:35;3.63;;;2.03;;
32365;SDS011;18837;46.832;16.838;2023-04-06T02:40:06;4.07;;;2.67;;
32365;SDS011;18837;46.832;16.838;2023-04-06T02:42:45;3.20;;;2.50;;
32365;SDS011;18837;46.832;16.838;2023-04-06T02:45:14;3.77;;;2.60;;
32365;SDS011;18837;46.832;16.838;2023-04-06T02:47:41;3.87;;;2.70;;
32365;SDS011;18837;46.832;16.838;2023-04-06T02:50:07;4.23;;;2.57;;
32365;SDS011;18837;46.832;16.838;2023-04-06T02:52:33;3.83;;;2.43;;
32365;SDS011;18837;46.832;16.838;2023-04-06T02:54:58;3.30;;;2.50;;
32365;SDS011;18837;46.832;16.838;2023-04-06T02:57:24;2.83;;;2.40;;
32365;SDS011;18837;46.832;16.838;2023-04-06T02:59:55;3.13;;;2.73;;
32365;SDS011;18837;46.832;16.838;2023-04-06T03:02:21;3.10;;;2.33;;
32365;SDS011;18837;46.832;16.838;2023-04-06T03:04:47;3.53;;;2.43;;
32365;SDS011;18837;46.832;16.838;2023-04-06T03:07:13;3.87;;;2.33;;
32365;SDS011;18837;46.832;16.838;2023-04-06T03:09:39;2.57;;;2.37;;
32365;SDS011;18837;46.832;16.838;2023-04-06T03:12:05;3.70;;;2.40;;
32365;SDS011;18837;46.832;16.838;2023-04-06T03:20:21;3.23;;;2.73;;
32365;SDS011;18837;46.832;16.838;2023-04-06T03:22:47;4.03;;;2.57;;
32365;SDS011;18837;46.832;16.838;2023-04-06T03:25:13;3.07;;;2.40;;
32365;SDS011;18837;46.832;16.838;2023-04-06T03:27:39;3.57;;;2.43;;
32365;SDS011;18837;46.832;16.838;2023-04-06T03:30:05;3.47;;;2.50;;
32365;SDS011;18837;46.832;16.838;2023-04-06T03:32:34;3.30;;;2.50;;
32365;SDS011;18837;46.832;16.838;2023-04-06T03:35:05;3.77;;;2.47;;
32365;SDS011;18837;46.832;16.838;2023-04-06T03:37:31;4.73;;;2.13;;
32365;SDS011;18837;46.832;16.838;2023-04-06T03:39:57;3.17;;;2.50;;
32365;SDS011;18837;46.832;16.838;2023-04-06T03:42:23;3.27;;;2.57;;
32365;SDS011;18837;46.832;16.838;2023-04-06T03:44:49;3.93;;;2.87;;
32365;SDS011;18837;46.832;16.838;2023-04-06T03:47:15;2.67;;;2.20;;
32365;SDS011;18837;46.832;16.838;2023-04-06T03:55:28;4.37;;;2.70;;
32365;SDS011;18837;46.832;16.838;2023-04-06T03:57:53;4.03;;;2.93;;
32365;SDS011;18837;46.832;16.838;2023-04-06T04:00:19;3.73;;;2.57;;
32365;SDS011;18837;46.832;16.838;2023-04-06T04:02:45;3.27;;;2.57;;
32365;SDS011;18837;46.832;16.838;2023-04-06T04:05:11;3.50;;;2.40;;
32365;SDS011;18837;46.832;16.838;2023-04-06T04:07:37;3.30;;;2.63;;
32365;SDS011;18837;46.832;16.838;2023-04-06T04:10:03;2.93;;;2.37;;
32365;SDS011;18837;46.832;16.838;2023-04-06T04:12:29;3.50;;;2.63;;
32365;SDS011;18837;46.832;16.838;2023-04-06T04:14:55;4.43;;;2.80;;
32365;SDS011;18837;46.832;16.838;2023-04-06T04:17:21;3.70;;;2.70;;
32365;SDS011;18837;46.832;16.838;2023-04-06T04:19:47;3.27;;;2.43;;
32365;SDS011;18837;46.832;16.838;2023-04-06T04:22:13;5.03;;;3.27;;
32365;SDS011;18837;46.832;16.838;2023-04-06T04:30:40;2.60;;;2.10;;
32365;SDS011;18837;46.832;16.838;2023-04-06T04:33:06;4.87;;;2.70;;
32365;SDS011;18837;46.832;16.838;2023-04-06T04:35:32;3.53;;;2.47;;
32365;SDS011;18837;46.832;16.838;2023-04-06T04:37:58;3.43;;;2.50;;
32365;SDS011;18837;46.832;16.838;2023-04-06T04:40:23;5.07;;;2.60;;
32365;SDS011;18837;46.832;16.838;2023-04-06T04:43:02;3.23;;;2.50;;
32365;SDS011;18837;46.832;16.838;2023-04-06T04:45:28;4.87;;;2.87;;
32365;SDS011;18837;46.832;16.838;2023-04-06T04:47:54;5.30;;;3.30;;
32365;SDS011;18837;46.832;16.838;2023-04-06T04:50:20;7.53;;;3.13;;
32365;SDS011;18837;46.832;16.838;2023-04-06T04:52:46;4.80;;;3.10;;
32365;SDS011;18837;46.832;16.838;2023-04-06T04:55:12;4.30;;;2.80;;
32365;SDS011;18837;46.832;16.838;2023-04-06T04:57:38;4.60;;;3.33;;
32365;SDS011;18837;46.832;16.838;2023-04-06T05:03:25;3.93;;;3.20;;
32365;SDS011;18837;46.832;16.838;2023-04-06T05:05:52;4.47;;;3.63;;
32365;SDS011;18837;46.832;16.838;2023-04-06T05:08:18;5.97;;;4.00;;
32365;SDS011;18837;46.832;16.838;2023-04-06T05:10:44;5.23;;;3.67;;
32365;SDS011;18837;46.832;16.838;2023-04-06T05:13:10;4.67;;;3.43;;
32365;SDS011;18837;46.832;16.838;2023-04-06T05:15:36;5.07;;;3.43;;
32365;SDS011;18837;46.832;16.838;2023-04-06T05:18:05;4.73;;;3.50;;
32365;SDS011;18837;46.832;16.838;2023-04-06T05:20:34;5.30;;;3.90;;
32365;SDS011;18837;46.832;16.838;2023-04-06T05:23:01;6.00;;;3.80;;
32365;SDS011;18837;46.832;16.838;2023-04-06T05:25:27;6.90;;;3.47;;
32365;SDS011;18837;46.832;16.838;2023-04-06T05:27:53;4.70;;;3.67;;
32365;SDS011;18837;46.832;16.838;2023-04-06T05:30:20;4.73;;;3.93;;
32365;SDS011;18837;46.832;16.838;2023-04-06T05:32:52;5.23;;;3.60;;
32365;SDS011;18837;46.832;16.838;2023-04-06T05:35:21;6.57;;;3.90;;
32365;SDS011;18837;46.832;16.838;2023-04-06T05:37:47;6.10;;;3.67;;
32365;SDS011;18837;46.832;16.838;2023-04-06T05:40:12;5.00;;;3.73;;
32365;SDS011;18837;46.832;16.838;2023-04-06T05:42:38;4.77;;;3.63;;
32365;SDS011;18837;46.832;16.838;2023-04-06T05:45:06;6.70;;;4.33;;
32365;SDS011;18837;46.832;16.838;2023-04-06T05:53:47;7.07;;;4.30;;
32365;SDS011;18837;46.832;16.838;2023-04-06T05:56:12;4.80;;;3.73;;
32365;SDS011;18837;46.832;16.838;2023-04-06T05:58:38;4.87;;;3.50;;
32365;SDS011;18837;46.832;16.838;2023-04-06T06:01:04;5.10;;;3.60;;
32365;SDS011;18837;46.832;16.838;2023-04-06T06:03:30;5.63;;;3.87;;
32365;SDS011;18837;46.832;16.838;2023-04-06T06:06:03;4.33;;;3.70;;
32365;SDS011;18837;46.832;16.838;2023-04-06T06:08:32;5.70;;;3.10;;
32365;SDS011;18837;46.832;16.838;2023-04-06T06:10:58;4.93;;;3.80;;
32365;SDS011;18837;46.832;16.838;2023-04-06T06:13:25;5.90;;;3.67;;
32365;SDS011;18837;46.832;16.838;2023-04-06T06:15:50;4.20;;;3.17;;
32365;SDS011;18837;46.832;16.838;2023-04-06T06:18:16;4.77;;;3.70;;
32365;SDS011;18837;46.832;16.838;2023-04-06T06:20:42;6.00;;;3.70;;
32365;SDS011;18837;46.832;16.838;2023-04-06T06:26:24;5.97;;;3.70;;
32365;SDS011;18837;46.832;16.838;2023-04-06T06:28:50;6.63;;;3.67;;
32365;SDS011;18837;46.832;16.838;2023-04-06T06:31:15;4.93;;;3.50;;
32365;SDS011;18837;46.832;16.838;2023-04-06T06:33:41;6.70;;;4.30;;
32365;SDS011;18837;46.832;16.838;2023-04-06T06:36:07;6.17;;;3.90;;
32365;SDS011;18837;46.832;16.838;2023-04-06T06:38:33;4.37;;;3.50;;
32365;SDS011;18837;46.832;16.838;2023-04-06T06:43:45;5.60;;;3.93;;
32365;SDS011;18837;46.832;16.838;2023-04-06T06:46:11;5.80;;;3.90;;
32365;SDS011;18837;46.832;16.838;2023-04-06T06:48:36;6.57;;;4.27;;
32365;SDS011;18837;46.832;16.838;2023-04-06T06:51:02;9.40;;;3.83;;
32365;SDS011;18837;46.832;16.838;2023-04-06T06:53:28;5.23;;;3.40;;
32365;SDS011;18837;46.832;16.838;2023-04-06T06:55:54;5.97;;;4.07;;
32365;SDS011;18837;46.832;16.838;2023-04-06T07:01:52;4.63;;;3.70;;
32365;SDS011;18837;46.832;16.838;2023-04-06T07:04:17;6.30;;;3.83;;
32365;SDS011;18837;46.832;16.838;2023-04-06T07:06:44;4.10;;;3.43;;
32365;SDS011;18837;46.832;16.838;2023-04-06T07:09:10;6.47;;;4.20;;
32365;SDS011;18837;46.832;16.838;2023-04-06T07:11:36;6.47;;;3.77;;
32365;SDS011;18837;46.832;16.838;2023-04-06T07:14:02;5.37;;;3.50;;
32365;SDS011;18837;46.832;16.838;2023-04-06T07:16:43;6.37;;;3.70;;
32365;SDS011;18837;46.832;16.838;2023-04-06T07:19:10;4.97;;;3.83;;
32365;SDS011;18837;46.832;16.838;2023-04-06T07:21:39;6.10;;;3.67;;
32365;SDS011;18837;46.832;16.838;2023-04-06T07:24:05;5.43;;;3.30;;
32365;SDS011;18837;46.832;16.838;2023-04-06T07:26:31;5.43;;;3.70;;
32365;SDS011;18837;46.832;16.838;2023-04-06T07:28:57;4.97;;;3.47;;
32365;SDS011;18837;46.832;16.838;2023-04-06T07:37:49;5.23;;;3.30;;
32365;SDS011;18837;46.832;16.838;2023-04-06T07:40:15;5.63;;;3.70;;
32365;SDS011;18837;46.832;16.838;2023-04-06T07:42:41;7.67;;;3.73;;
32365;SDS011;18837;46.832;16.838;2023-04-06T07:45:07;6.20;;;3.67;;
32365;SDS011;18837;46.832;16.838;2023-04-06T07:47:33;13.80;;;4.73;;
32365;SDS011;18837;46.832;16.838;2023-04-06T07:49:59;11.33;;;4.30;;
32365;SDS011;18837;46.832;16.838;2023-04-06T07:52:34;10.03;;;3.90;;
32365;SDS011;18837;46.832;16.838;2023-04-06T07:55:00;10.60;;;4.53;;
32365;SDS011;18837;46.832;16.838;2023-04-06T07:57:25;8.53;;;4.20;;
32365;SDS011;18837;46.832;16.838;2023-04-06T07:59:53;12.30;;;4.30;;
32365;SDS011;18837;46.832;16.838;2023-04-06T08:02:19;14.70;;;4.63;;
32365;SDS011;18837;46.832;16.838;2023-04-06T08:04:45;12.30;;;4.40;;
32365;SDS011;18837;46.832;16.838;2023-04-06T08:07:29;8.10;;;4.00;;
32365;SDS011;18837;46.832;16.838;2023-04-06T08:12:41;8.10;;;4.30;;
32365;SDS011;18837;46.832;16.838;2023-04-06T08:15:07;9.80;;;4.30;;
32365;SDS011;18837;46.832;16.838;2023-04-06T08:17:33;6.93;;;4.20;;
32365;SDS011;18837;46.832;16.838;2023-04-06T08:19:59;8.67;;;3.80;;
32365;SDS011;18837;46.832;16.838;2023-04-06T08:22:28;7.87;;;3.43;;
32365;SDS011;18837;46.832;16.838;2023-04-06T08:25:09;5.30;;;3.80;;
32365;SDS011;18837;46.832;16.838;2023-04-06T08:27:35;8.93;;;4.07;;
32365;SDS011;18837;46.832;16.838;2023-04-06T08:30:01;5.90;;;3.70;;
32365;SDS011;18837;46.832;16.838;2023-04-06T08:32:27;8.00;;;3.97;;
32365;SDS011;18837;46.832;16.838;2023-04-06T08:34:53;6.33;;;4.07;;
32365;SDS011;18837;46.832;16.838;2023-04-06T08:37:20;7.40;;;3.93;;
32365;SDS011;18837;46.832;16.838;2023-04-06T08:39:50;5.03;;;4.37;;
32365;SDS011;18837;46.832;16.838;2023-04-06T08:48:24;6.27;;;4.17;;
32365;SDS011;18837;46.832;16.838;2023-04-06T08:50:53;6.30;;;3.63;;
32365;SDS011;18837;46.832;16.838;2023-04-06T08:53:20;6.10;;;3.53;;
32365;SDS011;18837;46.832;16.838;2023-04-06T08:55:46;6.37;;;4.07;;
32365;SDS011;18837;46.832;16.838;2023-04-06T08:58:13;5.37;;;3.87;;
32365;SDS011;18837;46.832;16.838;2023-04-06T09:03:38;6.13;;;3.60;;
32365;SDS011;18837;46.832;16.838;2023-04-06T09:06:07;4.93;;;3.60;;
32365;SDS011;18837;46.832;16.838;2023-04-06T09:08:43;5.20;;;3.87;;
32365;SDS011;18837;46.832;16.838;2023-04-06T10:30:43;4.43;;;3.20;;
32365;SDS011;18837;46.832;16.838;2023-04-06T10:33:13;3.93;;;3.40;;
32365;SDS011;18837;46.832;16.838;2023-04-06T10:35:44;4.50;;;3.23;;
32365;SDS011;18837;46.832;16.838;2023-04-06T10:38:10;3.70;;;3.00;;
32365;SDS011;18837;46.832;16.838;2023-04-06T10:40:39;4.30;;;3.37;;
32365;SDS011;18837;46.832;16.838;2023-04-06T11:41:32;5.50;;;2.67;;
32365;SDS011;18837;46.832;16.838;2023-04-06T11:44:00;3.83;;;2.70;;
32365;SDS011;18837;46.832;16.838;2023-04-06T11:46:28;4.63;;;2.77;;
32365;SDS011;18837;46.832;16.838;2023-04-06T11:48:57;4.17;;;3.00;;
32365;SDS011;18837;46.832;16.838;2023-04-06T11:51:24;5.13;;;3.10;;
32365;SDS011;18837;46.832;16.838;2023-04-06T11:53:57;4.97;;;2.90;;
32365;SDS011;18837;46.832;16.838;2023-04-06T11:56:23;5.20;;;3.23;;
32365;SDS011;18837;46.832;16.838;2023-04-06T11:58:57;5.27;;;2.90;;
32365;SDS011;18837;46.832;16.838;2023-04-06T12:01:25;4.17;;;2.57;;
32365;SDS011;18837;46.832;16.838;2023-04-06T12:03:51;5.23;;;2.70;;
32365;SDS011;18837;46.832;16.838;2023-04-06T12:06:18;3.83;;;2.40;;
32365;SDS011;18837;46.832;16.838;2023-04-06T12:11:46;2.50;;;2.17;;
32365;SDS011;18837;46.832;16.838;2023-04-06T12:14:12;2.80;;;2.40;;
32365;SDS011;18837;46.832;16.838;2023-04-06T12:16:38;4.03;;;2.60;;
32365;SDS011;18837;46.832;16.838;2023-04-06T12:19:05;2.93;;;2.40;;
32365;SDS011;18837;46.832;16.838;2023-04-06T12:21:31;6.73;;;2.77;;
32365;SDS011;18837;46.832;16.838;2023-04-06T12:23:57;3.23;;;2.70;;
32365;SDS011;18837;46.832;16.838;2023-04-06T12:26:33;3.10;;;2.30;;
32365;SDS011;18837;46.832;16.838;2023-04-06T12:28:59;2.77;;;2.10;;
32365;SDS011;18837;46.832;16.838;2023-04-06T12:31:31;4.13;;;2.57;;
32365;SDS011;18837;46.832;16.838;2023-04-06T12:33:59;3.53;;;2.40;;
32365;SDS011;18837;46.832;16.838;2023-04-06T12:36:27;2.90;;;2.30;;
32365;SDS011;18837;46.832;16.838;2023-04-06T12:38:53;3.20;;;2.43;;
32365;SDS011;18837;46.832;16.838;2023-04-06T12:41:18;4.37;;;2.20;;
32365;SDS011;18837;46.832;16.838;2023-04-06T12:47:06;4.37;;;2.47;;
32365;SDS011;18837;46.832;16.838;2023-04-06T12:49:32;2.83;;;2.50;;
32365;SDS011;18837;46.832;16.838;2023-04-06T12:51:58;2.57;;;2.20;;
32365;SDS011;18837;46.832;16.838;2023-04-06T12:54:24;3.70;;;2.40;;
32365;SDS011;18837;46.832;16.838;2023-04-06T12:56:51;2.57;;;2.33;;
32365;SDS011;18837;46.832;16.838;2023-04-06T12:59:17;2.97;;;2.30;;
32365;SDS011;18837;46.832;16.838;2023-04-06T13:01:48;3.23;;;2.43;;
32365;SDS011;18837;46.832;16.838;2023-04-06T13:04:14;3.07;;;2.30;;
32365;SDS011;18837;46.832;16.838;2023-04-06T13:06:40;3.00;;;2.40;;
32365;SDS011;18837;46.832;16.838;2023-04-06T13:09:06;3.27;;;2.50;;
32365;SDS011;18837;46.832;16.838;2023-04-06T13:11:32;3.87;;;2.40;;
32365;SDS011;18837;46.832;16.838;2023-04-06T13:13:58;4.47;;;2.70;;
32365;SDS011;18837;46.832;16.838;2023-04-06T13:19:12;4.73;;;2.40;;
32365;SDS011;18837;46.832;16.838;2023-04-06T13:21:39;4.37;;;3.23;;
32365;SDS011;18837;46.832;16.838;2023-04-06T13:24:05;4.63;;;2.63;;
32365;SDS011;18837;46.832;16.838;2023-04-06T13:26:31;3.70;;;2.60;;
32365;SDS011;18837;46.832;16.838;2023-04-06T13:28:58;4.80;;;2.93;;
32365;SDS011;18837;46.832;16.838;2023-04-06T13:31:25;2.67;;;2.33;;
32365;SDS011;18837;46.832;16.838;2023-04-06T13:33:51;3.57;;;2.70;;
32365;SDS011;18837;46.832;16.838;2023-04-06T13:36:23;3.87;;;2.90;;
32365;SDS011;18837;46.832;16.838;2023-04-06T13:38:48;5.47;;;2.77;;
32365;SDS011;18837;46.832;16.838;2023-04-06T13:41:21;3.07;;;2.47;;
32365;SDS011;18837;46.832;16.838;2023-04-06T13:43:47;5.07;;;2.93;;
32365;SDS011;18837;46.832;16.838;2023-04-06T13:46:13;3.30;;;2.57;;
32365;SDS011;18837;46.832;16.838;2023-04-06T13:48:39;4.77;;;2.67;;
32365;SDS011;18837;46.832;16.838;2023-04-06T13:56:37;4.43;;;2.23;;
32365;SDS011;18837;46.832;16.838;2023-04-06T13:59:03;3.43;;;2.17;;
32365;SDS011;18837;46.832;16.838;2023-04-06T14:01:29;3.20;;;2.50;;
32365;SDS011;18837;46.832;16.838;2023-04-06T14:03:55;2.90;;;2.40;;
32365;SDS011;18837;46.832;16.838;2023-04-06T14:06:21;3.13;;;2.60;;
32365;SDS011;18837;46.832;16.838;2023-04-06T14:08:46;4.00;;;2.40;;
32365;SDS011;18837;46.832;16.838;2023-04-06T14:11:17;3.20;;;2.30;;
32365;SDS011;18837;46.832;16.838;2023-04-06T14:13:43;2.83;;;2.07;;
32365;SDS011;18837;46.832;16.838;2023-04-06T14:16:09;3.57;;;2.33;;
32365;SDS011;18837;46.832;16.838;2023-04-06T14:18:36;3.30;;;2.00;;
32365;SDS011;18837;46.832;16.838;2023-04-06T14:21:02;2.07;;;1.83;;
32365;SDS011;18837;46.832;16.838;2023-04-06T14:23:27;2.60;;;2.10;;
32365;SDS011;18837;46.832;16.838;2023-04-06T14:33:53;6.40;;;2.07;;
32365;SDS011;18837;46.832;16.838;2023-04-06T14:36:20;4.60;;;2.20;;
32365;SDS011;18837;46.832;16.838;2023-04-06T14:38:48;10.67;;;3.00;;
32365;SDS011;18837;46.832;16.838;2023-04-06T14:41:17;9.43;;;2.93;;
32365;SDS011;18837;46.832;16.838;2023-04-06T14:43:46;8.13;;;3.20;;
32365;SDS011;18837;46.832;16.838;2023-04-06T14:46:18;7.07;;;2.67;;
32365;SDS011;18837;46.832;16.838;2023-04-06T14:48:44;11.80;;;3.23;;
32365;SDS011;18837;46.832;16.838;2023-04-06T14:51:12;11.03;;;3.13;;
32365;SDS011;18837;46.832;16.838;2023-04-06T14:53:38;9.50;;;3.30;;
32365;SDS011;18837;46.832;16.838;2023-04-06T14:56:04;7.23;;;2.53;;
32365;SDS011;18837;46.832;16.838;2023-04-06T14:58:30;10.63;;;3.30;;
32365;SDS011;18837;46.832;16.838;2023-04-06T15:00:57;11.40;;;4.23;;
32365;SDS011;18837;46.832;16.838;2023-04-06T15:03:24;5.63;;;2.63;;
32365;SDS011;18837;46.832;16.838;2023-04-06T15:05:53;6.50;;;3.23;;
32365;SDS011;18837;46.832;16.838;2023-04-06T15:08:19;6.53;;;3.03;;
32365;SDS011;18837;46.832;16.838;2023-04-06T15:10:46;6.37;;;2.70;;
32365;SDS011;18837;46.832;16.838;2023-04-06T15:13:12;6.43;;;2.73;;
32365;SDS011;18837;46.832;16.838;2023-04-06T15:15:39;9.37;;;2.50;;
32365;SDS011;18837;46.832;16.838;2023-04-06T15:18:05;9.27;;;2.60;;
32365;SDS011;18837;46.832;16.838;2023-04-06T15:20:32;4.83;;;2.27;;
32365;SDS011;18837;46.832;16.838;2023-04-06T15:23:00;6.33;;;2.80;;
32365;SDS011;18837;46.832;16.838;2023-04-06T15:25:27;6.10;;;2.70;;
32365;SDS011;18837;46.832;16.838;2023-04-06T15:27:56;5.07;;;2.37;;
32365;SDS011;18837;46.832;16.838;2023-04-06T15:30:22;3.67;;;2.63;;
32365;SDS011;18837;46.832;16.838;2023-04-06T15:33:06;5.50;;;2.60;;
32365;SDS011;18837;46.832;16.838;2023-04-06T15:35:45;3.53;;;2.53;;
32365;SDS011;18837;46.832;16.838;2023-04-06T15:38:20;8.03;;;2.93;;
32365;SDS011;18837;46.832;16.838;2023-04-06T15:40:46;5.17;;;2.43;;
32365;SDS011;18837;46.832;16.838;2023-04-06T15:43:13;5.80;;;2.97;;
32365;SDS011;18837;46.832;16.838;2023-04-06T15:45:40;3.43;;;2.43;;
32365;SDS011;18837;46.832;16.838;2023-04-06T15:48:06;3.97;;;2.50;;
32365;SDS011;18837;46.832;16.838;2023-04-06T15:50:33;5.60;;;3.00;;
32365;SDS011;18837;46.832;16.838;2023-04-06T15:52:59;4.13;;;2.67;;
32365;SDS011;18837;46.832;16.838;2023-04-06T15:55:25;5.10;;;2.37;;
32365;SDS011;18837;46.832;16.838;2023-04-06T15:57:51;5.37;;;3.07;;
32365;SDS011;18837;46.832;16.838;2023-04-06T16:00:17;9.53;;;2.63;;
32365;SDS011;18837;46.832;16.838;2023-04-06T16:02:43;6.30;;;2.90;;
32365;SDS011;18837;46.832;16.838;2023-04-06T16:05:08;8.77;;;3.10;;
32365;SDS011;18837;46.832;16.838;2023-04-06T16:07:34;3.90;;;2.70;;
32365;SDS011;18837;46.832;16.838;2023-04-06T16:10:02;4.50;;;2.77;;
32365;SDS011;18837;46.832;16.838;2023-04-06T16:12:30;5.47;;;2.50;;
32365;SDS011;18837;46.832;16.838;2023-04-06T16:15:07;8.40;;;2.80;;
32365;SDS011;18837;46.832;16.838;2023-04-06T16:17:33;3.83;;;2.53;;
32365;SDS011;18837;46.832;16.838;2023-04-06T16:19:58;4.17;;;2.60;;
32365;SDS011;18837;46.832;16.838;2023-04-06T16:22:24;6.20;;;3.30;;
32365;SDS011;18837;46.832;16.838;2023-04-06T16:24:52;5.10;;;3.00;;
32365;SDS011;18837;46.832;16.838;2023-04-06T16:27:18;3.90;;;2.40;;
32365;SDS011;18837;46.832;16.838;2023-04-06T16:29:44;5.37;;;2.77;;
32365;SDS011;18837;46.832;16.838;2023-04-06T16:32:10;4.33;;;2.50;;
32365;SDS011;18837;46.832;16.838;2023-04-06T16:34:36;3.37;;;2.83;;
32365;SDS011;18837;46.832;16.838;2023-04-06T16:37:02;6.53;;;2.60;;
32365;SDS011;18837;46.832;16.838;2023-04-06T16:39:27;4.53;;;2.57;;
32365;SDS011;18837;46.832;16.838;2023-04-06T16:41:53;2.47;;;2.27;;
32365;SDS011;18837;46.832;16.838;2023-04-06T16:44:36;4.30;;;2.70;;
32365;SDS011;18837;46.832;16.838;2023-04-06T16:49:47;2.50;;;2.27;;
32365;SDS011;18837;46.832;16.838;2023-04-06T16:52:13;4.87;;;2.60;;
32365;SDS011;18837;46.832;16.838;2023-04-06T16:54:39;2.20;;;2.00;;
32365;SDS011;18837;46.832;16.838;2023-04-06T16:57:05;4.13;;;2.80;;
32365;SDS011;18837;46.832;16.838;2023-04-06T16:59:31;3.27;;;2.67;;
32365;SDS011;18837;46.832;16.838;2023-04-06T17:01:56;4.87;;;2.40;;
32365;SDS011;18837;46.832;16.838;2023-04-06T17:04:22;2.80;;;2.27;;
32365;SDS011;18837;46.832;16.838;2023-04-06T17:06:48;4.30;;;2.20;;
32365;SDS011;18837;46.832;16.838;2023-04-06T17:09:14;3.23;;;2.10;;
32365;SDS011;18837;46.832;16.838;2023-04-06T17:11:40;6.40;;;2.47;;
32365;SDS011;18837;46.832;16.838;2023-04-06T17:14:06;2.50;;;2.17;;
32365;SDS011;18837;46.832;16.838;2023-04-06T17:16:33;2.90;;;2.20;;
32365;SDS011;18837;46.832;16.838;2023-04-06T17:19:09;3.90;;;2.30;;
32365;SDS011;18837;46.832;16.838;2023-04-06T17:21:37;3.50;;;2.50;;
32365;SDS011;18837;46.832;16.838;2023-04-06T17:24:05;3.13;;;2.70;;
32365;SDS011;18837;46.832;16.838;2023-04-06T17:26:32;2.60;;;2.40;;
32365;SDS011;18837;46.832;16.838;2023-04-06T17:28:58;3.60;;;2.37;;
32365;SDS011;18837;46.832;16.838;2023-04-06T17:31:25;7.30;;;2.90;;
32365;SDS011;18837;46.832;16.838;2023-04-06T17:33:51;4.37;;;2.87;;
32365;SDS011;18837;46.832;16.838;2023-04-06T17:36:17;5.00;;;2.60;;
32365;SDS011;18837;46.832;16.838;2023-04-06T17:38:43;4.87;;;2.33;;
32365;SDS011;18837;46.832;16.838;2023-04-06T17:41:13;5.13;;;2.60;;
32365;SDS011;18837;46.832;16.838;2023-04-06T17:43:40;7.00;;;2.53;;
32365;SDS011;18837;46.832;16.838;2023-04-06T17:46:06;6.23;;;2.70;;
32365;SDS011;18837;46.832;16.838;2023-04-06T17:48:32;5.23;;;3.17;;
32365;SDS011;18837;46.832;16.838;2023-04-06T17:50:58;6.07;;;3.10;;
32365;SDS011;18837;46.832;16.838;2023-04-06T17:56:29;6.90;;;3.20;;
32365;SDS011;18837;46.832;16.838;2023-04-06T17:59:00;5.07;;;3.50;;
32365;SDS011;18837;46.832;16.838;2023-04-06T18:01:26;6.53;;;3.60;;
32365;SDS011;18837;46.832;16.838;2023-04-06T18:03:53;6.43;;;3.40;;
32365;SDS011;18837;46.832;16.838;2023-04-06T18:06:19;5.43;;;3.40;;
32365;SDS011;18837;46.832;16.838;2023-04-06T18:08:47;5.73;;;3.30;;
32365;SDS011;18837;46.832;16.838;2023-04-06T18:11:13;5.10;;;3.77;;
32365;SDS011;18837;46.832;16.838;2023-04-06T18:13:46;7.67;;;3.80;;
32365;SDS011;18837;46.832;16.838;2023-04-06T18:16:12;6.57;;;4.03;;
32365;SDS011;18837;46.832;16.838;2023-04-06T18:18:38;5.57;;;3.80;;
32365;SDS011;18837;46.832;16.838;2023-04-06T18:21:05;6.43;;;4.20;;
32365;SDS011;18837;46.832;16.838;2023-04-06T18:23:34;7.43;;;4.40;;